createdAt,value
2023-02-05T00:00:18.699Z,-0.20
2023-02-05T00:02:45.387Z,-0.20
2023-02-05T00:05:11.877Z,-0.20
2023-02-05T00:07:38.421Z,-0.30
2023-02-05T00:10:05.269Z,-0.30
2023-02-05T00:12:31.792Z,-0.40
2023-02-05T00:14:58.323Z,-0.40
2023-02-05T00:17:24.873Z,-0.40
2023-02-05T00:19:51.399Z,-0.40
2023-02-05T00:22:18.107Z,-0.40
2023-02-05T00:24:44.656Z,-0.40
2023-02-05T00:27:11.194Z,-0.40
2023-02-05T00:29:37.733Z,-0.40
2023-02-05T00:32:04.368Z,-0.50
2023-02-05T00:34:31.020Z,-0.50
2023-02-05T00:36:57.525Z,-0.60
2023-02-05T00:39:24.041Z,-0.60
2023-02-05T00:41:50.619Z,-0.60
2023-02-05T00:44:17.191Z,-0.60
2023-02-05T00:46:43.700Z,-0.60
2023-02-05T00:49:10.191Z,-0.50
2023-02-05T00:51:36.691Z,-0.50
2023-02-05T00:54:03.308Z,-0.50
2023-02-05T00:56:29.807Z,-0.50
2023-02-05T00:58:57.509Z,-0.50
2023-02-05T01:01:24.111Z,-0.50
2023-02-05T01:03:50.640Z,-0.50
2023-02-05T01:06:17.256Z,-0.50
2023-02-05T01:08:43.834Z,-0.60
2023-02-05T01:11:11.338Z,-0.60
2023-02-05T01:13:38.478Z,-0.50
2023-02-05T01:16:05.107Z,-0.50
2023-02-05T01:18:31.671Z,-0.50
2023-02-05T01:20:59.207Z,-0.60
2023-02-05T01:23:25.801Z,-0.60
2023-02-05T01:25:52.478Z,-0.50
2023-02-05T01:28:19.046Z,-0.40
2023-02-05T01:30:49.712Z,-0.70
2023-02-05T01:33:16.372Z,-0.80
2023-02-05T01:35:44.724Z,-0.90
2023-02-05T01:38:12.114Z,-1.00
2023-02-05T01:40:39.086Z,-1.10
2023-02-05T01:43:10.025Z,-1.10
2023-02-05T01:45:54.988Z,-1.10
2023-02-05T01:48:27.804Z,-1.10
2023-02-05T01:50:57.189Z,-1.10
2023-02-05T01:53:28.128Z,-1.00
2023-02-05T01:55:57.337Z,-1.00
2023-02-05T01:58:25.399Z,-1.10
2023-02-05T02:00:52.134Z,-0.90
2023-02-05T02:03:18.778Z,-0.90
2023-02-05T02:05:45.268Z,-1.00
2023-02-05T02:08:12.478Z,-1.00
2023-02-05T02:10:41.819Z,-1.00
2023-02-05T02:13:08.624Z,-1.00
2023-02-05T02:15:35.433Z,-1.10
2023-02-05T02:18:21.915Z,-1.20
2023-02-05T02:20:51.799Z,-1.20
2023-02-05T02:23:37.103Z,-1.30
2023-02-05T02:26:06.673Z,-1.40
2023-02-05T02:28:42.969Z,-1.50
2023-02-05T02:31:13.999Z,-1.60
2023-02-05T02:33:48.335Z,-1.70
2023-02-05T02:36:25.072Z,-1.80
2023-02-05T02:38:57.799Z,-1.80
2023-02-05T02:41:34.216Z,-1.90
2023-02-05T02:44:11.257Z,-1.90
2023-02-05T02:46:37.797Z,-1.90
2023-02-05T02:49:05.978Z,-1.80
2023-02-05T02:51:34.239Z,-1.70
2023-02-05T02:54:09.261Z,-1.70
2023-02-05T02:56:37.294Z,-1.80
2023-02-05T02:59:08.387Z,-1.90
2023-02-05T03:01:36.926Z,-2.00
2023-02-05T03:04:11.900Z,-2.10
2023-02-05T03:06:39.465Z,-2.10
2023-02-05T03:09:08.813Z,-2.10
2023-02-05T03:11:35.427Z,-2.20
2023-02-05T03:14:01.979Z,-2.20
2023-02-05T03:16:28.603Z,-2.20
2023-02-05T03:18:55.993Z,-2.10
2023-02-05T03:21:48.708Z,-2.20
2023-02-05T03:24:15.442Z,-2.30
2023-02-05T03:26:42.162Z,-2.30
2023-02-05T03:29:11.051Z,-2.10
2023-02-05T03:31:37.608Z,-2.10
2023-02-05T03:34:04.372Z,-2.10
2023-02-05T03:36:50.647Z,-2.30
2023-02-05T03:39:27.986Z,-2.40
2023-02-05T03:41:57.506Z,-2.50
2023-02-05T03:44:47.019Z,-2.50
2023-02-05T03:47:33.923Z,-2.50
2023-02-05T03:50:18.781Z,-2.60
2023-02-05T03:52:49.695Z,-2.70
2023-02-05T03:55:20.299Z,-2.60
2023-02-05T03:57:50.543Z,-2.70
2023-02-05T04:00:17.713Z,-2.60
2023-02-05T04:02:44.787Z,-2.60
2023-02-05T04:05:11.262Z,-2.60
2023-02-05T04:07:37.785Z,-2.60
2023-02-05T04:10:04.340Z,-2.60
2023-02-05T04:12:30.897Z,-2.50
2023-02-05T04:14:57.400Z,-2.50
2023-02-05T04:17:23.909Z,-2.50
2023-02-05T04:19:50.391Z,-2.50
2023-02-05T04:22:17.074Z,-2.50
2023-02-05T04:24:43.567Z,-2.40
2023-02-05T04:27:10.107Z,-2.40
2023-02-05T04:29:36.635Z,-2.30
2023-02-05T04:32:03.182Z,-2.20
2023-02-05T04:34:29.759Z,-2.20
2023-02-05T04:36:56.274Z,-2.00
2023-02-05T04:39:22.881Z,-2.00
2023-02-05T04:41:49.394Z,-2.10
2023-02-05T04:44:15.891Z,-2.20
2023-02-05T04:46:42.545Z,-2.20
2023-02-05T04:49:09.044Z,-2.20
2023-02-05T04:51:35.612Z,-2.20
2023-02-05T04:54:02.121Z,-2.10
2023-02-05T04:56:28.689Z,-2.20
2023-02-05T04:58:55.302Z,-2.30
2023-02-05T05:01:22.928Z,-2.40
2023-02-05T05:03:49.961Z,-2.50
2023-02-05T05:06:17.097Z,-2.50
2023-02-05T05:08:43.628Z,-2.50
2023-02-05T05:11:14.885Z,-2.50
2023-02-05T05:13:41.825Z,-2.50
2023-02-05T05:16:08.523Z,-2.50
2023-02-05T05:18:35.075Z,-2.50
2023-02-05T05:21:02.124Z,-2.50
2023-02-05T05:23:28.847Z,-2.50
2023-02-05T05:25:55.430Z,-2.50
2023-02-05T05:28:21.915Z,-2.60
2023-02-05T05:30:48.911Z,-2.70
2023-02-05T05:33:15.639Z,-2.70
2023-02-05T05:35:42.217Z,-2.60
2023-02-05T05:38:08.721Z,-2.50
2023-02-05T05:41:13.845Z,-2.60
2023-02-05T05:43:46.584Z,-2.50
2023-02-05T05:46:21.798Z,-2.40
2023-02-05T05:48:49.627Z,-2.20
2023-02-05T05:51:16.455Z,-2.10
2023-02-05T05:53:43.025Z,-2.20
2023-02-05T05:56:09.600Z,-2.30
2023-02-05T05:58:36.091Z,-2.40
2023-02-05T06:01:02.631Z,-2.40
2023-02-05T06:03:29.178Z,-2.50
2023-02-05T06:05:55.744Z,-2.50
2023-02-05T06:08:22.250Z,-2.60
2023-02-05T06:10:48.797Z,-2.60
2023-02-05T06:13:15.366Z,-2.50
2023-02-05T06:15:41.928Z,-2.50
2023-02-05T06:18:08.448Z,-2.50
2023-02-05T06:20:35.001Z,-2.50
2023-02-05T06:23:01.543Z,-2.40
2023-02-05T06:25:28.030Z,-2.40
2023-02-05T06:27:54.597Z,-2.50
2023-02-05T06:30:21.111Z,-2.40
2023-02-05T06:32:47.608Z,-2.20
2023-02-05T06:35:14.662Z,-2.20
2023-02-05T06:37:48.290Z,-2.20
2023-02-05T06:40:17.886Z,-2.20
2023-02-05T06:42:44.713Z,-2.20
2023-02-05T06:45:11.481Z,-2.30
2023-02-05T06:47:38.577Z,-2.30
2023-02-05T06:50:06.039Z,-2.10
2023-02-05T06:52:32.879Z,-2.20
2023-02-05T06:54:59.395Z,-2.30
2023-02-05T06:57:26.250Z,-2.30
2023-02-05T06:59:52.804Z,-2.30
2023-02-05T07:02:19.370Z,-2.30
2023-02-05T07:04:46.037Z,-2.30
2023-02-05T07:07:13.617Z,-2.30
2023-02-05T07:09:40.226Z,-2.30
2023-02-05T07:12:06.934Z,-2.30
2023-02-05T07:14:37.022Z,-2.20
2023-02-05T07:17:03.538Z,-2.20
2023-02-05T07:19:30.022Z,-2.00
2023-02-05T07:21:56.625Z,-1.70
2023-02-05T07:24:23.376Z,-1.70
2023-02-05T07:26:49.932Z,-1.50
2023-02-05T07:29:16.473Z,-1.30
2023-02-05T07:31:43.126Z,-1.20
2023-02-05T07:34:09.695Z,-1.30
2023-02-05T07:36:36.257Z,-1.50
2023-02-05T07:39:02.840Z,-1.50
2023-02-05T07:41:29.339Z,-1.60
2023-02-05T07:43:55.907Z,-1.60
2023-02-05T07:46:22.848Z,-1.60
2023-02-05T07:48:49.423Z,-1.60
2023-02-05T07:51:20.424Z,-1.60
2023-02-05T07:53:47.243Z,-1.30
2023-02-05T07:56:14.883Z,-1.20
2023-02-05T07:58:41.723Z,-1.20
2023-02-05T08:01:08.512Z,-1.20
2023-02-05T08:03:35.291Z,-1.10
2023-02-05T08:06:05.519Z,-1.00
2023-02-05T08:08:32.361Z,-1.00
2023-02-05T08:11:05.346Z,-1.10
2023-02-05T08:13:38.398Z,-1.10
2023-02-05T08:16:06.136Z,-1.10
2023-02-05T08:18:33.118Z,-1.10
2023-02-05T08:20:59.727Z,-1.10
2023-02-05T08:23:26.574Z,-1.00
2023-02-05T08:25:54.114Z,-1.00
2023-02-05T08:28:20.779Z,-0.80
2023-02-05T08:30:47.501Z,-0.80
2023-02-05T08:33:14.002Z,-0.60
2023-02-05T08:35:40.496Z,-0.60
2023-02-05T08:38:07.116Z,-0.50
2023-02-05T08:40:35.351Z,-0.40
2023-02-05T08:43:02.692Z,-0.30
2023-02-05T08:45:29.821Z,-0.20
2023-02-05T08:47:56.623Z,-0.20
2023-02-05T08:50:23.183Z,-0.10
2023-02-05T08:52:49.740Z,0.00
2023-02-05T08:55:18.141Z,0.10
2023-02-05T08:57:44.685Z,0.20
2023-02-05T09:00:11.468Z,0.30
2023-02-05T09:02:38.023Z,0.40
2023-02-05T09:05:11.551Z,0.40
2023-02-05T09:07:39.418Z,0.40
2023-02-05T09:10:07.393Z,0.50
2023-02-05T09:12:33.887Z,0.60
2023-02-05T09:15:00.474Z,0.80
2023-02-05T09:17:27.393Z,1.00
2023-02-05T09:19:53.961Z,1.00
2023-02-05T09:22:20.886Z,1.20
2023-02-05T09:24:47.418Z,1.10
2023-02-05T09:27:14.910Z,1.20
2023-02-05T09:29:41.594Z,1.20
2023-02-05T09:32:08.151Z,1.20
2023-02-05T09:34:34.697Z,1.20
2023-02-05T09:37:01.514Z,1.30
2023-02-05T09:40:02.239Z,1.30
2023-02-05T09:42:34.971Z,1.40
2023-02-05T09:45:38.866Z,1.40
2023-02-05T09:48:24.632Z,1.50
2023-02-05T09:50:51.634Z,1.60
2023-02-05T09:53:21.428Z,1.70
2023-02-05T09:55:48.518Z,1.70
2023-02-05T09:58:27.362Z,1.70
2023-02-05T10:00:57.006Z,2.00
2023-02-05T10:03:42.333Z,2.00
2023-02-05T10:06:27.754Z,2.10
2023-02-05T10:09:02.425Z,2.10
2023-02-05T10:11:41.162Z,2.10
2023-02-05T10:14:28.061Z,2.10
2023-02-05T10:17:00.575Z,2.20
2023-02-05T10:19:38.953Z,2.20
2023-02-05T10:22:20.480Z,2.20
2023-02-05T10:24:56.300Z,2.20
2023-02-05T10:27:24.448Z,2.20
2023-02-05T10:29:54.083Z,2.30
2023-02-05T10:32:25.100Z,2.40
2023-02-05T10:35:06.667Z,2.40
2023-02-05T10:37:48.427Z,2.40
2023-02-05T10:40:16.673Z,2.40
2023-02-05T10:42:46.441Z,2.40
2023-02-05T10:45:12.890Z,2.50
2023-02-05T10:47:57.991Z,2.50
2023-02-05T10:50:30.636Z,2.60
2023-02-05T10:52:57.201Z,2.60
2023-02-05T10:55:23.740Z,2.70
2023-02-05T10:57:50.828Z,2.60
2023-02-05T11:00:19.689Z,2.70
2023-02-05T11:02:48.717Z,2.70
2023-02-05T11:05:26.463Z,2.60
2023-02-05T11:07:53.626Z,2.60
2023-02-05T11:10:24.796Z,2.60
2023-02-05T11:12:53.252Z,2.60
2023-02-05T11:15:24.421Z,2.60
2023-02-05T11:17:52.554Z,2.60
2023-02-05T11:20:19.422Z,2.60
2023-02-05T11:22:46.243Z,2.70
2023-02-05T11:25:16.202Z,2.70
2023-02-05T11:27:56.109Z,2.80
2023-02-05T11:30:47.624Z,2.90
2023-02-05T11:33:21.604Z,3.00
2023-02-05T11:35:52.316Z,3.00
2023-02-05T11:38:27.313Z,3.00
2023-02-05T11:40:54.334Z,2.90
2023-02-05T11:43:25.699Z,3.00
2023-02-05T11:45:53.452Z,3.00
2023-02-05T11:48:26.676Z,3.00
2023-02-05T11:50:53.486Z,2.90
2023-02-05T11:53:20.541Z,2.90
2023-02-05T11:55:52.083Z,2.90
2023-02-05T11:58:31.495Z,2.90
2023-02-05T12:01:20.133Z,3.00
2023-02-05T12:03:57.540Z,3.00
2023-02-05T12:06:28.965Z,3.00
2023-02-05T12:08:55.473Z,3.00
2023-02-05T12:12:00.908Z,3.00
2023-02-05T12:14:36.115Z,3.00
2023-02-05T12:17:21.502Z,3.10
2023-02-05T12:19:55.184Z,3.00
2023-02-05T12:22:29.891Z,3.00
2023-02-05T12:25:06.465Z,2.90
2023-02-05T12:27:49.325Z,2.90
2023-02-05T12:30:25.892Z,2.90
2023-02-05T12:33:00.543Z,3.00
2023-02-05T12:35:47.391Z,3.00
2023-02-05T12:38:33.082Z,3.00
2023-02-05T12:41:05.084Z,3.00
2023-02-05T12:43:39.278Z,3.00
2023-02-05T12:46:13.157Z,3.00
2023-02-05T12:48:46.775Z,3.00
2023-02-05T12:51:16.104Z,3.00
2023-02-05T12:53:49.995Z,2.90
2023-02-05T12:56:25.670Z,2.90
2023-02-05T12:59:13.715Z,2.80
2023-02-05T13:01:42.935Z,2.80
2023-02-05T13:04:20.529Z,2.90
2023-02-05T13:06:52.964Z,2.90
2023-02-05T13:09:22.748Z,2.90
2023-02-05T13:12:02.072Z,2.80
2023-02-05T13:14:39.607Z,2.80
2023-02-05T13:17:26.423Z,2.70
2023-02-05T13:19:58.673Z,2.70
2023-02-05T13:22:45.576Z,2.70
2023-02-05T13:25:40.321Z,2.70
2023-02-05T13:28:35.655Z,2.70
2023-02-05T13:31:04.099Z,2.70
2023-02-05T13:33:30.728Z,2.60
2023-02-05T13:36:03.608Z,2.60
2023-02-05T13:38:39.086Z,2.60
2023-02-05T13:41:18.940Z,2.50
2023-02-05T13:43:45.412Z,2.50
2023-02-05T13:46:19.555Z,2.50
2023-02-05T13:49:03.013Z,2.50
2023-02-05T13:51:47.958Z,2.40
2023-02-05T13:54:24.312Z,2.50
2023-02-05T13:57:00.408Z,2.50
2023-02-05T13:59:32.794Z,2.50
2023-02-05T14:02:01.608Z,2.50
2023-02-05T14:04:37.019Z,2.60
2023-02-05T14:07:08.625Z,2.60
2023-02-05T14:09:37.414Z,2.70
2023-02-05T14:12:05.895Z,2.70
2023-02-05T14:14:34.918Z,2.70
2023-02-05T14:17:20.220Z,2.80
2023-02-05T14:19:48.775Z,2.80
2023-02-05T14:22:34.167Z,2.80
2023-02-05T14:25:00.763Z,2.80
2023-02-05T14:27:30.298Z,2.90
2023-02-05T14:29:59.407Z,2.90
2023-02-05T14:32:25.979Z,2.90
2023-02-05T14:35:11.391Z,2.90
2023-02-05T14:37:42.668Z,2.90
2023-02-05T14:40:32.565Z,2.90
2023-02-05T14:43:12.846Z,2.90
2023-02-05T14:45:44.021Z,2.90
2023-02-05T14:48:24.685Z,2.90
2023-02-05T14:51:05.056Z,3.00
2023-02-05T14:53:32.232Z,2.90
2023-02-05T14:55:59.987Z,2.90
2023-02-05T14:58:31.205Z,2.90
2023-02-05T15:01:16.634Z,2.90
2023-02-05T15:03:43.351Z,2.80
2023-02-05T15:06:14.890Z,2.80
2023-02-05T15:08:55.038Z,2.70
2023-02-05T15:11:26.190Z,2.70
2023-02-05T15:14:30.805Z,2.60
2023-02-05T15:17:06.409Z,2.70
2023-02-05T15:19:34.295Z,2.60
2023-02-05T15:22:01.517Z,2.50
2023-02-05T15:24:29.799Z,2.40
2023-02-05T15:26:59.101Z,2.40
2023-02-05T15:29:27.490Z,2.30
2023-02-05T15:31:55.211Z,2.30
2023-02-05T15:34:28.631Z,2.20
2023-02-05T15:37:01.165Z,2.10
2023-02-05T15:39:34.068Z,2.10
2023-02-05T15:42:01.845Z,1.90
2023-02-05T15:44:30.135Z,1.90
2023-02-05T15:47:05.775Z,1.70
2023-02-05T15:49:35.782Z,1.60
2023-02-05T15:52:03.339Z,1.50
2023-02-05T15:54:32.918Z,1.40
2023-02-05T15:56:59.505Z,1.30
2023-02-05T15:59:28.782Z,1.20
2023-02-05T16:02:16.186Z,1.10
2023-02-05T16:04:42.786Z,1.10
2023-02-05T16:07:23.369Z,1.00
2023-02-05T16:09:52.991Z,0.90
2023-02-05T16:12:20.477Z,0.80
2023-02-05T16:14:56.692Z,0.80
2023-02-05T16:17:26.109Z,0.70
2023-02-05T16:19:52.587Z,0.60
2023-02-05T16:22:21.923Z,0.50
2023-02-05T16:24:49.618Z,0.50
2023-02-05T16:27:18.110Z,0.40
2023-02-05T16:29:48.636Z,0.30
2023-02-05T16:32:21.543Z,0.20
2023-02-05T16:34:48.463Z,0.20
2023-02-05T16:37:17.114Z,0.10
2023-02-05T16:39:46.137Z,0.10
2023-02-05T16:42:28.086Z,0.00
2023-02-05T16:45:13.356Z,0.00
2023-02-05T16:47:40.103Z,-0.10
2023-02-05T16:50:25.518Z,0.00
2023-02-05T16:52:57.675Z,-0.10
2023-02-05T16:55:27.232Z,-0.10
2023-02-05T16:58:02.716Z,-0.20
2023-02-05T17:00:30.417Z,-0.20
2023-02-05T17:03:04.065Z,-0.30
2023-02-05T17:05:33.352Z,-0.30
2023-02-05T17:08:01.542Z,-0.30
2023-02-05T17:10:28.830Z,-0.40
2023-02-05T17:13:05.007Z,-0.40
2023-02-05T17:15:32.985Z,-0.40
2023-02-05T17:18:18.354Z,-0.40
2023-02-05T17:20:46.048Z,-0.50
2023-02-05T17:23:13.979Z,-0.50
2023-02-05T17:25:51.171Z,-0.50
2023-02-05T17:28:22.689Z,-0.60
2023-02-05T17:30:49.981Z,-0.60
2023-02-05T17:33:18.908Z,-0.60
2023-02-05T17:35:45.386Z,-0.70
2023-02-05T17:38:12.040Z,-0.70
2023-02-05T17:40:38.819Z,-0.70
2023-02-05T17:43:05.384Z,-0.80
2023-02-05T17:45:34.535Z,-0.80
2023-02-05T17:48:01.555Z,-0.90
2023-02-05T17:50:28.480Z,-0.90
2023-02-05T17:52:55.138Z,-0.80
2023-02-05T17:55:22.099Z,-0.90
2023-02-05T17:57:48.747Z,-0.90
2023-02-05T18:00:20.203Z,-1.00
2023-02-05T18:02:46.814Z,-1.00
2023-02-05T18:05:13.889Z,-1.00
2023-02-05T18:07:46.434Z,-1.00
2023-02-05T18:10:14.987Z,-1.10
2023-02-05T18:12:41.637Z,-1.10
2023-02-05T18:15:08.516Z,-1.10
2023-02-05T18:17:35.311Z,-1.20
2023-02-05T18:20:02.688Z,-1.30
2023-02-05T18:22:29.315Z,-1.30
2023-02-05T18:24:55.840Z,-1.40
2023-02-05T18:27:22.813Z,-1.40
2023-02-05T18:29:49.300Z,-1.40
2023-02-05T18:32:15.792Z,-1.40
2023-02-05T18:34:42.334Z,-1.40
2023-02-05T18:37:08.856Z,-1.40
2023-02-05T18:39:35.478Z,-1.30
2023-02-05T18:42:02.058Z,-1.40
2023-02-05T18:44:28.563Z,-1.40
2023-02-05T18:46:55.267Z,-1.40
2023-02-05T18:49:22.011Z,-1.50
2023-02-05T18:51:50.577Z,-1.60
2023-02-05T18:54:17.090Z,-1.60
2023-02-05T18:56:43.627Z,-1.60
2023-02-05T18:59:14.080Z,-1.70
2023-02-05T19:01:40.977Z,-1.70
2023-02-05T19:04:09.303Z,-1.80
2023-02-05T19:06:36.127Z,-1.80
2023-02-05T19:09:03.434Z,-1.90
2023-02-05T19:11:30.610Z,-1.90
2023-02-05T19:13:58.492Z,-1.90
2023-02-05T19:16:26.194Z,-2.00
2023-02-05T19:18:52.921Z,-2.00
2023-02-05T19:21:20.264Z,-1.90
2023-02-05T19:23:49.450Z,-1.90
2023-02-05T19:26:17.353Z,-1.90
2023-02-05T19:28:45.040Z,-1.90
2023-02-05T19:31:12.946Z,-1.90
2023-02-05T19:33:39.716Z,-2.00
2023-02-05T19:36:07.428Z,-2.00
2023-02-05T19:38:34.608Z,-2.10
2023-02-05T19:41:17.378Z,-2.20
2023-02-05T19:43:52.277Z,-2.20
2023-02-05T19:46:20.195Z,-2.30
2023-02-05T19:48:46.881Z,-2.20
2023-02-05T19:51:14.179Z,-2.20
2023-02-05T19:53:41.592Z,-2.20
2023-02-05T19:56:09.903Z,-2.10
2023-02-05T19:58:41.224Z,-2.10
2023-02-05T20:01:15.149Z,-2.00
2023-02-05T20:03:42.227Z,-2.00
2023-02-05T20:06:09.204Z,-1.90
2023-02-05T20:08:35.780Z,-1.90
2023-02-05T20:11:03.076Z,-2.00
2023-02-05T20:13:30.602Z,-2.10
2023-02-05T20:16:00.641Z,-2.10
2023-02-05T20:18:27.195Z,-2.10
2023-02-05T20:20:53.741Z,-2.10
2023-02-05T20:23:21.069Z,-2.20
2023-02-05T20:26:00.677Z,-2.20
2023-02-05T20:28:27.487Z,-2.30
2023-02-05T20:31:12.793Z,-2.50
2023-02-05T20:33:39.959Z,-2.50
2023-02-05T20:36:07.299Z,-2.50
2023-02-05T20:38:34.035Z,-2.60
2023-02-05T20:41:09.595Z,-2.60
2023-02-05T20:43:36.113Z,-2.60
2023-02-05T20:46:03.900Z,-2.60
2023-02-05T20:48:30.859Z,-2.70
2023-02-05T20:51:03.727Z,-2.80
2023-02-05T20:53:30.219Z,-2.90
2023-02-05T20:56:00.588Z,-2.90
2023-02-05T20:58:27.188Z,-2.80
2023-02-05T21:00:53.755Z,-2.80
2023-02-05T21:03:20.313Z,-2.70
2023-02-05T21:05:46.801Z,-2.70
2023-02-05T21:08:13.423Z,-2.60
2023-02-05T21:10:39.927Z,-2.60
2023-02-05T21:13:06.409Z,-2.60
2023-02-05T21:15:33.346Z,-2.70
2023-02-05T21:17:59.919Z,-2.60
2023-02-05T21:20:27.291Z,-2.60
2023-02-05T21:22:55.780Z,-2.60
2023-02-05T21:25:22.532Z,-2.60
2023-02-05T21:27:50.788Z,-2.70
2023-02-05T21:30:17.523Z,-2.70
2023-02-05T21:32:44.207Z,-2.80
2023-02-05T21:35:10.873Z,-3.00
2023-02-05T21:37:38.087Z,-3.10
2023-02-05T21:40:09.708Z,-3.00
2023-02-05T21:42:36.505Z,-3.10
2023-02-05T21:45:03.091Z,-3.10
2023-02-05T21:47:29.592Z,-3.10
2023-02-05T21:49:56.157Z,-3.00
2023-02-05T21:52:22.662Z,-3.10
2023-02-05T21:54:50.612Z,-3.10
2023-02-05T21:57:17.579Z,-3.20
2023-02-05T21:59:44.417Z,-3.20
2023-02-05T22:02:11.505Z,-3.30
2023-02-05T22:04:38.225Z,-3.40
2023-02-05T22:07:04.827Z,-3.20
2023-02-05T22:09:31.455Z,-3.10
2023-02-05T22:12:03.619Z,-3.20
2023-02-05T22:14:30.671Z,-3.30
2023-02-05T22:16:57.218Z,-3.30
2023-02-05T22:19:24.548Z,-3.30
2023-02-05T22:21:51.100Z,-3.30
2023-02-05T22:24:18.427Z,-3.30
2023-02-05T22:26:45.577Z,-3.30
2023-02-05T22:29:13.569Z,-3.40
2023-02-05T22:31:40.922Z,-3.30
2023-02-05T22:34:08.089Z,-3.40
2023-02-05T22:36:34.923Z,-3.50
2023-02-05T22:39:02.324Z,-3.50
2023-02-05T22:41:30.817Z,-3.70
2023-02-05T22:43:58.540Z,-3.60
2023-02-05T22:46:26.734Z,-3.60
2023-02-05T22:48:53.792Z,-3.40
2023-02-05T22:51:27.871Z,-3.50
2023-02-05T22:53:54.891Z,-3.50
2023-02-05T22:56:21.848Z,-3.40
2023-02-05T22:58:48.975Z,-3.30
2023-02-05T23:01:26.197Z,-3.40
2023-02-05T23:03:52.891Z,-3.30
2023-02-05T23:06:26.858Z,-3.30
2023-02-05T23:08:54.865Z,-3.40
2023-02-05T23:11:21.672Z,-3.50
2023-02-05T23:13:48.528Z,-3.60
2023-02-05T23:16:19.984Z,-3.60
2023-02-05T23:18:47.011Z,-3.50
2023-02-05T23:21:14.831Z,-3.40
2023-02-05T23:23:41.800Z,-3.50
2023-02-05T23:26:12.764Z,-3.60
2023-02-05T23:28:39.661Z,-3.70
2023-02-05T23:31:06.314Z,-3.70
2023-02-05T23:33:33.047Z,-3.80
2023-02-05T23:35:59.769Z,-3.80
2023-02-05T23:38:26.627Z,-3.90
2023-02-05T23:40:53.997Z,-4.00
2023-02-05T23:43:21.523Z,-4.00
2023-02-05T23:45:48.675Z,-4.00
2023-02-05T23:48:15.294Z,-3.90
2023-02-05T23:50:43.586Z,-3.90
2023-02-05T23:53:13.126Z,-3.90
2023-02-05T23:55:40.282Z,-3.90
2023-02-05T23:58:07.554Z,-3.90
